createdAt,value
2022-11-23T00:04:47.151Z,3.73
2022-11-23T00:09:48.691Z,3.70
2022-11-23T00:14:50.244Z,3.67
2022-11-23T00:19:51.858Z,3.62
2022-11-23T00:24:53.437Z,3.62
2022-11-23T00:29:55.055Z,3.56
2022-11-23T00:34:56.598Z,3.53
2022-11-23T00:39:58.148Z,3.52
2022-11-23T00:44:59.710Z,3.53
2022-11-23T00:50:01.293Z,3.52
2022-11-23T00:55:02.984Z,3.41
2022-11-23T01:00:06.827Z,3.42
2022-11-23T01:05:08.785Z,3.37
2022-11-23T01:10:10.357Z,3.44
2022-11-23T01:15:11.898Z,3.44
2022-11-23T01:20:13.479Z,3.37
2022-11-23T01:25:15.038Z,3.37
2022-11-23T01:30:16.897Z,3.42
2022-11-23T01:35:18.491Z,3.44
2022-11-23T01:40:20.223Z,3.52
2022-11-23T01:45:36.224Z,3.57
2022-11-23T01:50:38.674Z,3.60
2022-11-23T01:55:40.585Z,3.64
2022-11-23T02:00:42.500Z,3.66
2022-11-23T02:05:49.301Z,3.68
2022-11-23T02:10:50.926Z,3.71
2022-11-23T02:15:54.219Z,3.67
2022-11-23T02:21:01.322Z,3.68
2022-11-23T02:26:08.128Z,3.67
2022-11-23T02:31:09.864Z,3.64
2022-11-23T02:36:44.538Z,3.66
2022-11-23T02:41:54.921Z,3.61
2022-11-23T02:46:57.917Z,3.66
2022-11-23T02:51:59.699Z,3.64
2022-11-23T02:57:01.278Z,3.63
2022-11-23T03:02:05.058Z,3.63
2022-11-23T03:07:06.672Z,3.63
2022-11-23T03:12:08.435Z,3.60
2022-11-23T03:17:10.046Z,3.58
2022-11-23T03:22:11.768Z,3.55
2022-11-23T03:27:13.352Z,3.53
2022-11-23T03:32:14.990Z,3.50
2022-11-23T03:37:16.554Z,3.53
2022-11-23T03:42:18.143Z,3.45
2022-11-23T03:47:19.720Z,3.41
2022-11-23T03:52:21.296Z,3.42
2022-11-23T03:57:22.884Z,3.44
2022-11-23T04:02:24.710Z,3.34
2022-11-23T04:07:26.282Z,3.31
2022-11-23T04:12:28.090Z,3.36
2022-11-23T04:17:29.664Z,3.39
2022-11-23T04:22:31.432Z,3.39
2022-11-23T04:27:33.057Z,3.40
2022-11-23T04:32:34.623Z,3.46
2022-11-23T04:37:36.176Z,3.50
2022-11-23T04:42:37.748Z,3.49
2022-11-23T04:47:39.412Z,3.58
2022-11-23T04:52:40.956Z,3.63
2022-11-23T04:57:42.479Z,3.66
2022-11-23T05:02:45.153Z,3.75
2022-11-23T05:07:46.762Z,3.76
2022-11-23T05:12:48.364Z,3.77
2022-11-23T05:17:49.941Z,3.76
2022-11-23T05:22:51.474Z,3.77
2022-11-23T05:27:53.095Z,3.80
2022-11-23T05:32:54.686Z,3.85
2022-11-23T05:37:56.455Z,3.85
2022-11-23T05:42:59.051Z,3.84
2022-11-23T05:48:00.631Z,3.86
2022-11-23T05:53:02.399Z,3.83
2022-11-23T05:58:03.947Z,3.95
2022-11-23T06:03:05.530Z,3.74
2022-11-23T06:08:07.096Z,3.77
2022-11-23T06:13:08.660Z,3.77
2022-11-23T06:18:10.297Z,3.71
2022-11-23T06:23:11.854Z,3.64
2022-11-23T06:28:13.451Z,3.69
2022-11-23T06:33:15.009Z,3.65
2022-11-23T06:38:16.598Z,3.69
2022-11-23T06:43:18.255Z,3.71
2022-11-23T06:48:19.823Z,3.58
2022-11-23T06:53:21.373Z,3.53
2022-11-23T06:58:22.950Z,3.60
2022-11-23T07:03:24.852Z,3.61
2022-11-23T07:08:27.526Z,3.53
2022-11-23T07:13:29.184Z,3.61
2022-11-23T07:18:30.834Z,3.68
2022-11-23T07:23:32.438Z,3.69
2022-11-23T07:28:34.070Z,3.68
2022-11-23T07:33:35.696Z,3.66
2022-11-23T07:38:37.305Z,3.80
2022-11-23T07:43:38.900Z,3.85
2022-11-23T07:48:40.437Z,3.85
2022-11-23T07:53:42.207Z,3.90
2022-11-23T07:58:43.780Z,3.96
2022-11-23T08:03:46.594Z,3.95
2022-11-23T08:08:48.310Z,3.99
2022-11-23T08:13:49.906Z,4.06
2022-11-23T08:18:51.527Z,4.01
2022-11-23T08:23:53.073Z,4.03
2022-11-23T08:28:54.652Z,4.09
2022-11-23T08:34:00.299Z,4.03
2022-11-23T08:39:05.181Z,4.07
2022-11-23T08:44:09.812Z,4.09
2022-11-23T08:49:11.396Z,4.17
2022-11-23T08:54:12.974Z,4.21
2022-11-23T08:59:14.549Z,4.45
2022-11-23T09:04:20.480Z,4.42
2022-11-23T09:09:22.756Z,4.37
2022-11-23T09:14:24.772Z,4.49
2022-11-23T09:19:26.531Z,4.53
2022-11-23T09:24:28.269Z,4.65
2022-11-23T09:29:29.899Z,4.57
2022-11-23T09:34:31.735Z,4.66
2022-11-23T09:39:33.559Z,4.50
2022-11-23T09:44:53.698Z,4.56
2022-11-23T09:50:09.302Z,4.42
2022-11-23T09:55:36.850Z,4.54
2022-11-23T10:00:47.800Z,4.42
2022-11-23T10:06:19.647Z,4.53
2022-11-23T10:11:43.932Z,4.44
2022-11-23T10:17:27.080Z,4.56
2022-11-23T10:22:42.903Z,4.68
2022-11-23T10:27:47.780Z,4.65
2022-11-23T10:33:21.897Z,4.80
2022-11-23T10:38:27.090Z,4.81
2022-11-23T10:43:34.938Z,4.96
2022-11-23T10:48:37.020Z,4.96
2022-11-23T10:53:38.846Z,5.07
2022-11-23T10:58:45.700Z,5.11
2022-11-23T11:03:47.273Z,5.34
2022-11-23T11:08:51.566Z,5.57
2022-11-23T11:14:16.909Z,5.92
2022-11-23T11:19:25.878Z,6.27
2022-11-23T11:24:39.969Z,6.44
2022-11-23T11:29:44.505Z,6.46
2022-11-23T11:34:52.480Z,6.60
2022-11-23T11:40:30.060Z,6.65
2022-11-23T11:45:36.860Z,6.97
2022-11-23T11:50:58.451Z,6.92
2022-11-23T11:56:40.456Z,6.72
2022-11-23T12:01:47.760Z,6.60
2022-11-23T12:06:56.970Z,6.57
2022-11-23T12:11:58.895Z,6.68
2022-11-23T12:17:32.839Z,6.71
2022-11-23T12:22:43.723Z,6.75
2022-11-23T12:27:51.462Z,6.62
2022-11-23T12:33:01.965Z,6.61
2022-11-23T12:38:27.846Z,6.61
2022-11-23T12:43:52.753Z,6.56
2022-11-23T12:49:13.354Z,6.47
2022-11-23T12:54:35.394Z,6.43
2022-11-23T12:59:46.320Z,6.34
2022-11-23T13:04:59.766Z,6.23
2022-11-23T13:10:21.169Z,6.13
2022-11-23T13:15:38.882Z,6.05
2022-11-23T13:21:19.115Z,5.96
2022-11-23T13:26:23.683Z,5.78
2022-11-23T13:31:36.267Z,5.73
2022-11-23T13:37:11.568Z,5.62
2022-11-23T13:42:05.929Z,5.58
2022-11-23T13:47:27.743Z,5.44
2022-11-23T13:52:31.211Z,5.36
2022-11-23T13:57:33.343Z,5.32
2022-11-23T14:02:34.971Z,5.23
2022-11-23T14:07:47.095Z,5.15
2022-11-23T14:12:56.951Z,5.21
2022-11-23T14:18:20.064Z,5.11
2022-11-23T14:23:46.355Z,5.12
2022-11-23T14:29:06.251Z,5.13
2022-11-23T14:34:37.916Z,5.06
2022-11-23T14:39:56.332Z,5.06
2022-11-23T14:45:05.104Z,5.06
2022-11-23T14:50:20.192Z,5.04
2022-11-23T14:55:24.985Z,5.01
2022-11-23T15:00:36.387Z,5.01
2022-11-23T15:05:40.026Z,5.00
2022-11-23T15:11:03.042Z,5.03
2022-11-23T15:16:05.267Z,5.00
2022-11-23T15:21:23.886Z,4.93
2022-11-23T15:32:14.431Z,4.81
2022-11-23T15:37:14.595Z,4.81
2022-11-23T15:42:18.998Z,4.81
2022-11-23T15:47:27.790Z,4.75
2022-11-23T15:52:35.839Z,4.68
2022-11-23T15:57:39.649Z,4.65
2022-11-23T16:02:42.446Z,4.69
2022-11-23T16:07:59.864Z,4.59
2022-11-23T16:13:03.978Z,4.57
2022-11-23T16:18:19.906Z,4.57
2022-11-23T16:23:27.566Z,4.54
2022-11-23T16:28:36.553Z,4.45
2022-11-23T16:33:38.105Z,4.43
2022-11-23T16:38:39.639Z,4.44
2022-11-23T16:43:41.232Z,4.43
2022-11-23T16:48:42.846Z,4.44
2022-11-23T16:59:15.575Z,4.38
2022-11-23T17:04:17.273Z,4.28
2022-11-23T17:09:18.887Z,4.23
2022-11-23T17:14:24.129Z,4.27
2022-11-23T17:19:28.238Z,4.17
2022-11-23T17:24:29.957Z,4.12
2022-11-23T17:29:32.378Z,4.08
2022-11-23T17:34:34.800Z,4.07
2022-11-23T17:39:36.549Z,4.07
2022-11-23T17:44:38.802Z,4.02
2022-11-23T17:49:40.560Z,4.01
2022-11-23T17:54:42.128Z,3.96
2022-11-23T17:59:43.920Z,3.86
2022-11-23T18:04:46.582Z,3.67
2022-11-23T18:09:48.992Z,3.66
2022-11-23T18:14:50.532Z,3.64
2022-11-23T18:19:52.163Z,3.57
2022-11-23T18:24:53.726Z,3.56
2022-11-23T18:29:55.683Z,3.58
2022-11-23T18:34:57.354Z,3.55
2022-11-23T18:39:58.885Z,3.46
2022-11-23T18:45:01.259Z,3.50
2022-11-23T18:50:06.492Z,3.52
2022-11-23T18:55:08.538Z,3.55
2022-11-23T19:00:12.570Z,3.60
2022-11-23T19:05:14.161Z,3.53
2022-11-23T19:10:16.159Z,3.51
2022-11-23T19:15:17.908Z,3.50
2022-11-23T19:20:21.430Z,3.44
2022-11-23T19:25:23.081Z,3.45
2022-11-23T19:30:24.633Z,3.46
2022-11-23T19:35:26.179Z,3.44
2022-11-23T19:40:27.726Z,3.45
2022-11-23T19:45:29.829Z,3.43
2022-11-23T19:50:31.378Z,3.43
2022-11-23T19:55:33.012Z,3.43
2022-11-23T20:00:34.569Z,3.40
2022-11-23T20:05:36.172Z,3.33
2022-11-23T20:10:37.764Z,3.29
2022-11-23T20:15:39.402Z,3.23
2022-11-23T20:20:45.946Z,3.19
2022-11-23T20:25:49.057Z,3.19
2022-11-23T20:30:51.620Z,3.17
2022-11-23T20:35:53.279Z,3.12
2022-11-23T20:40:54.851Z,3.03
2022-11-23T20:45:58.498Z,2.98
2022-11-23T20:51:00.063Z,2.90
2022-11-23T20:56:12.822Z,2.87
2022-11-23T21:01:18.738Z,2.86
2022-11-23T21:06:21.559Z,2.81
2022-11-23T21:11:46.561Z,2.75
2022-11-23T21:16:53.478Z,2.73
2022-11-23T21:21:56.823Z,2.74
2022-11-23T21:26:58.386Z,2.76
2022-11-23T21:32:03.571Z,2.78
2022-11-23T21:37:05.129Z,2.72
2022-11-23T21:42:07.384Z,2.68
2022-11-23T21:47:09.459Z,2.70
2022-11-23T21:52:11.014Z,2.54
2022-11-23T21:57:12.560Z,2.41
2022-11-23T22:08:29.498Z,2.27
2022-11-23T22:13:36.745Z,2.26
2022-11-23T22:18:39.297Z,2.20
2022-11-23T22:23:41.510Z,2.13
2022-11-23T22:28:45.833Z,2.02
2022-11-23T22:33:48.519Z,1.93
2022-11-23T22:39:02.744Z,1.92
2022-11-23T22:44:10.312Z,1.94
2022-11-23T22:49:12.431Z,2.00
2022-11-23T22:54:14.168Z,1.97
2022-11-23T22:59:15.908Z,1.90
2022-11-23T23:04:17.781Z,1.89
2022-11-23T23:09:19.535Z,1.95
2022-11-23T23:14:21.353Z,1.99
2022-11-23T23:19:23.478Z,1.97
2022-11-23T23:24:25.261Z,1.98
2022-11-23T23:29:27.095Z,2.00
2022-11-23T23:34:28.843Z,2.03
2022-11-23T23:39:30.652Z,1.97
2022-11-23T23:44:32.721Z,1.97
2022-11-23T23:49:34.752Z,1.95
2022-11-23T23:54:36.664Z,2.02
2022-11-23T23:59:38.497Z,2.07
